createdAt,value
2018-07-27T00:00:23.846Z,4.87
2018-07-27T00:02:52.373Z,5.03
2018-07-27T00:05:21.014Z,5.00
2018-07-27T00:07:51.031Z,5.07
2018-07-27T00:10:19.905Z,4.93
2018-07-27T00:12:48.457Z,4.63
2018-07-27T00:15:17.000Z,4.83
2018-07-27T00:17:45.859Z,5.03
2018-07-27T00:20:14.381Z,4.90
2018-07-27T00:22:42.892Z,4.67
2018-07-27T00:25:11.453Z,4.90
2018-07-27T00:27:39.967Z,5.63
2018-07-27T00:30:08.629Z,5.83
2018-07-27T00:32:37.106Z,4.73
2018-07-27T00:35:06.035Z,4.80
2018-07-27T00:37:34.607Z,5.13
2018-07-27T00:40:03.123Z,4.80
2018-07-27T00:42:31.760Z,4.97
2018-07-27T00:45:00.289Z,5.77
2018-07-27T00:47:28.788Z,4.90
2018-07-27T00:49:57.313Z,5.30
2018-07-27T00:52:25.871Z,5.23
2018-07-27T00:54:54.479Z,5.33
2018-07-27T00:57:23.037Z,5.40
2018-07-27T00:59:51.523Z,4.73
2018-07-27T01:02:20.076Z,4.90
2018-07-27T01:04:48.893Z,5.40
2018-07-27T01:07:17.423Z,4.80
2018-07-27T01:09:46.113Z,4.77
2018-07-27T01:12:14.646Z,4.60
2018-07-27T01:14:43.140Z,4.77
2018-07-27T01:17:11.701Z,5.23
2018-07-27T01:19:40.240Z,5.10
2018-07-27T01:22:08.882Z,4.90
2018-07-27T01:24:37.388Z,5.30
2018-07-27T01:27:06.056Z,5.30
2018-07-27T01:29:34.628Z,5.83
2018-07-27T01:32:03.109Z,5.50
2018-07-27T01:34:31.642Z,5.23
2018-07-27T01:37:00.169Z,6.17
2018-07-27T01:39:28.673Z,5.60
2018-07-27T01:41:57.190Z,5.50
2018-07-27T01:44:25.738Z,5.43
2018-07-27T01:46:54.294Z,6.47
2018-07-27T01:49:22.756Z,5.63
2018-07-27T01:51:51.306Z,5.37
2018-07-27T01:54:20.073Z,5.90
2018-07-27T01:56:48.602Z,6.03
2018-07-27T01:59:17.272Z,5.63
2018-07-27T02:01:45.789Z,5.43
2018-07-27T02:04:14.244Z,5.13
2018-07-27T02:06:42.762Z,6.27
2018-07-27T02:09:11.317Z,5.70
2018-07-27T02:11:39.810Z,6.17
2018-07-27T02:14:08.339Z,5.97
2018-07-27T02:16:37.277Z,5.80
2018-07-27T02:19:05.906Z,5.97
2018-07-27T02:21:34.504Z,6.17
2018-07-27T02:24:03.010Z,6.10
2018-07-27T02:26:31.564Z,6.40
2018-07-27T02:29:00.093Z,6.60
2018-07-27T02:31:28.683Z,5.73
2018-07-27T02:33:57.237Z,5.83
2018-07-27T02:36:25.733Z,6.10
2018-07-27T02:38:54.252Z,5.77
2018-07-27T02:41:22.767Z,5.37
2018-07-27T02:43:51.475Z,5.60
2018-07-27T02:46:20.615Z,5.60
2018-07-27T02:48:49.164Z,6.27
2018-07-27T02:51:17.724Z,6.03
2018-07-27T02:53:46.262Z,5.97
2018-07-27T02:56:14.800Z,5.57
2018-07-27T02:58:43.263Z,6.13
2018-07-27T03:01:12.136Z,6.03
2018-07-27T03:03:40.619Z,5.20
2018-07-27T03:06:09.098Z,4.80
2018-07-27T03:08:37.621Z,6.23
2018-07-27T03:11:06.156Z,5.70
2018-07-27T03:13:34.723Z,6.80
2018-07-27T03:16:03.259Z,7.57
2018-07-27T03:18:31.752Z,7.17
2018-07-27T03:21:00.269Z,6.07
2018-07-27T03:23:28.973Z,5.60
2018-07-27T03:25:57.559Z,6.67
2018-07-27T03:28:26.146Z,6.50
2018-07-27T03:30:54.879Z,6.30
2018-07-27T03:33:23.375Z,5.77
2018-07-27T03:35:51.913Z,6.03
2018-07-27T03:38:20.555Z,6.10
2018-07-27T03:40:49.102Z,5.73
2018-07-27T03:43:17.594Z,6.20
2018-07-27T03:45:46.130Z,6.67
2018-07-27T03:48:14.642Z,6.20
2018-07-27T03:50:43.224Z,6.77
2018-07-27T03:53:11.739Z,6.13
2018-07-27T03:55:40.291Z,6.03
2018-07-27T03:58:08.879Z,6.33
2018-07-27T04:00:37.478Z,6.37
2018-07-27T04:03:06.231Z,6.57
2018-07-27T04:05:34.771Z,6.53
2018-07-27T04:08:03.258Z,5.87
2018-07-27T04:10:31.852Z,6.10
2018-07-27T04:13:00.443Z,6.00
2018-07-27T04:15:28.966Z,5.90
2018-07-27T04:18:01.024Z,6.90
2018-07-27T04:22:51.631Z,6.37
2018-07-27T04:25:20.550Z,7.10
2018-07-27T04:27:49.346Z,7.00
2018-07-27T04:30:18.143Z,7.13
2018-07-27T04:32:46.664Z,6.93
2018-07-27T04:35:15.562Z,6.40
2018-07-27T04:37:44.103Z,6.80
2018-07-27T04:40:12.639Z,6.33
2018-07-27T04:42:41.238Z,7.40
2018-07-27T04:45:09.901Z,7.30
2018-07-27T04:47:38.597Z,6.70
2018-07-27T04:50:07.947Z,6.93
2018-07-27T04:52:36.477Z,7.40
2018-07-27T04:55:05.043Z,7.30
2018-07-27T04:57:33.635Z,7.53
2018-07-27T05:00:02.297Z,6.50
2018-07-27T05:02:31.022Z,6.70
2018-07-27T05:04:59.481Z,6.70
2018-07-27T05:07:28.000Z,6.30
2018-07-27T05:09:56.485Z,6.60
2018-07-27T05:12:24.977Z,7.00
2018-07-27T05:14:53.481Z,7.10
2018-07-27T05:17:22.013Z,6.50
2018-07-27T05:19:50.534Z,6.70
2018-07-27T05:22:19.172Z,6.50
2018-07-27T05:24:47.796Z,6.90
2018-07-27T05:27:16.318Z,6.63
2018-07-27T05:29:44.780Z,6.17
2018-07-27T05:32:13.304Z,6.30
2018-07-27T05:34:41.839Z,6.75
2018-07-27T05:37:10.347Z,6.40
2018-07-27T05:39:38.828Z,6.22
2018-07-27T05:42:07.457Z,6.22
2018-07-27T05:44:35.964Z,6.55
2018-07-27T05:47:04.582Z,6.37
2018-07-27T05:49:33.052Z,6.20
2018-07-27T05:52:01.581Z,6.28
2018-07-27T05:54:30.061Z,6.00
2018-07-27T05:56:58.700Z,6.37
2018-07-27T05:59:27.257Z,6.80
2018-07-27T06:01:55.721Z,6.28
2018-07-27T06:04:24.200Z,6.60
2018-07-27T06:06:52.793Z,5.62
2018-07-27T06:09:21.268Z,5.95
2018-07-27T06:11:49.777Z,6.37
2018-07-27T06:14:18.384Z,6.15
2018-07-27T06:16:46.903Z,5.42
2018-07-27T06:19:15.382Z,6.00
2018-07-27T06:21:44.009Z,6.10
2018-07-27T06:24:12.497Z,6.17
2018-07-27T06:26:40.974Z,6.58
2018-07-27T06:29:09.473Z,5.53
2018-07-27T06:31:37.963Z,5.83
2018-07-27T06:34:06.518Z,7.10
2018-07-27T06:36:34.985Z,6.17
2018-07-27T06:39:03.744Z,5.87
2018-07-27T06:41:32.232Z,6.15
2018-07-27T06:44:00.719Z,5.92
2018-07-27T06:46:29.224Z,5.55
2018-07-27T06:48:57.701Z,6.20
2018-07-27T06:51:26.202Z,6.05
2018-07-27T06:53:54.721Z,6.67
2018-07-27T06:56:23.271Z,6.60
2018-07-27T06:58:51.781Z,6.10
2018-07-27T07:01:20.297Z,6.42
2018-07-27T07:03:49.120Z,6.67
2018-07-27T07:06:17.621Z,6.40
2018-07-27T07:08:46.318Z,6.50
2018-07-27T07:11:14.777Z,6.03
2018-07-27T07:13:43.282Z,6.70
2018-07-27T07:16:12.245Z,6.78
2018-07-27T07:18:40.716Z,7.33
2018-07-27T07:21:09.180Z,6.95
2018-07-27T07:23:37.673Z,6.83
2018-07-27T07:26:06.502Z,6.77
2018-07-27T07:28:34.756Z,6.23
2018-07-27T07:31:03.250Z,6.97
2018-07-27T07:33:31.761Z,7.17
2018-07-27T07:36:00.321Z,6.63
2018-07-27T07:38:28.938Z,6.87
2018-07-27T07:40:57.417Z,6.80
2018-07-27T07:43:26.000Z,6.90
2018-07-27T07:45:54.485Z,6.63
2018-07-27T07:48:23.242Z,6.30
2018-07-27T07:50:51.764Z,6.30
2018-07-27T07:53:20.284Z,6.90
2018-07-27T07:55:49.401Z,7.87
2018-07-27T07:58:17.861Z,6.70
2018-07-27T08:00:46.836Z,5.93
2018-07-27T08:03:15.706Z,6.53
2018-07-27T08:05:44.249Z,6.35
2018-07-27T08:08:12.709Z,6.90
2018-07-27T08:10:41.213Z,6.47
2018-07-27T08:13:09.657Z,6.37
2018-07-27T08:15:38.253Z,6.30
2018-07-27T08:18:06.708Z,6.35
2018-07-27T08:20:35.205Z,6.60
2018-07-27T08:23:03.697Z,5.72
2018-07-27T08:26:43.313Z,6.42
2018-07-27T08:29:13.910Z,6.10
2018-07-27T08:31:43.446Z,6.97
2018-07-27T08:34:12.912Z,6.05
2018-07-27T08:36:41.393Z,6.20
2018-07-27T08:39:11.167Z,6.78
2018-07-27T08:41:40.304Z,6.67
2018-07-27T08:44:09.805Z,7.55
2018-07-27T08:46:39.168Z,6.55
2018-07-27T08:49:07.932Z,7.15
2018-07-27T08:51:36.420Z,6.47
2018-07-27T08:54:04.950Z,6.22
2018-07-27T08:56:33.469Z,7.67
2018-07-27T08:59:02.169Z,5.72
2018-07-27T09:01:30.811Z,5.50
2018-07-27T09:03:59.354Z,6.03
2018-07-27T09:06:27.883Z,5.45
2018-07-27T09:08:56.487Z,5.90
2018-07-27T09:11:25.254Z,5.60
2018-07-27T09:13:54.577Z,6.00
2018-07-27T09:16:23.224Z,5.10
2018-07-27T09:18:52.275Z,5.78
2018-07-27T09:21:20.808Z,5.42
2018-07-27T09:23:49.337Z,5.75
2018-07-27T09:26:17.921Z,5.47
2018-07-27T09:28:46.437Z,5.65
2018-07-27T09:31:14.904Z,5.60
2018-07-27T09:33:43.410Z,5.12
2018-07-27T09:36:11.954Z,5.80
2018-07-27T09:38:40.440Z,4.85
2018-07-27T09:41:09.005Z,5.37
2018-07-27T09:43:37.597Z,4.83
2018-07-27T09:46:06.881Z,4.65
2018-07-27T09:48:35.356Z,5.33
2018-07-27T09:51:03.921Z,5.33
2018-07-27T09:53:32.456Z,5.60
2018-07-27T09:56:01.073Z,4.72
2018-07-27T09:58:29.623Z,4.97
2018-07-27T10:01:03.334Z,5.05
2018-07-27T10:03:32.364Z,5.62
2018-07-27T10:06:00.829Z,4.10
2018-07-27T10:08:29.333Z,4.80
2018-07-27T10:10:57.868Z,4.33
2018-07-27T10:13:26.360Z,4.87
2018-07-27T10:15:55.308Z,4.75
2018-07-27T10:18:24.257Z,3.98
2018-07-27T10:20:52.710Z,4.75
2018-07-27T10:23:21.277Z,4.62
2018-07-27T10:25:49.885Z,4.42
2018-07-27T10:28:18.362Z,4.15
2018-07-27T10:30:46.845Z,3.98
2018-07-27T10:33:15.365Z,4.72
2018-07-27T10:35:43.911Z,4.35
2018-07-27T10:38:12.416Z,4.10
2018-07-27T10:40:40.941Z,4.22
2018-07-27T10:43:09.509Z,4.70
2018-07-27T10:45:38.005Z,4.95
2018-07-27T10:48:06.518Z,5.08
2018-07-27T10:50:35.036Z,4.70
2018-07-27T10:53:03.521Z,4.62
2018-07-27T10:55:31.991Z,5.10
2018-07-27T10:58:00.476Z,4.60
2018-07-27T11:00:29.059Z,4.10
2018-07-27T11:02:57.530Z,3.72
2018-07-27T11:05:26.033Z,4.80
2018-07-27T11:07:54.522Z,5.08
2018-07-27T11:10:23.061Z,4.67
2018-07-27T11:12:51.658Z,4.75
2018-07-27T11:15:20.227Z,4.80
2018-07-27T11:17:48.771Z,4.65
2018-07-27T11:20:17.232Z,4.40
2018-07-27T11:22:45.717Z,5.00
2018-07-27T11:25:14.238Z,4.65
2018-07-27T11:27:42.785Z,4.58
2018-07-27T11:30:11.278Z,4.42
2018-07-27T11:32:39.820Z,4.22
2018-07-27T11:35:08.299Z,4.90
2018-07-27T11:37:36.760Z,4.75
2018-07-27T11:40:06.293Z,4.35
2018-07-27T11:42:34.842Z,4.83
2018-07-27T11:45:03.712Z,5.03
2018-07-27T11:47:32.218Z,4.20
2018-07-27T11:50:00.709Z,4.78
2018-07-27T11:52:29.250Z,4.80
2018-07-27T11:54:57.718Z,4.22
2018-07-27T11:57:26.389Z,4.83
2018-07-27T11:59:54.832Z,3.70
2018-07-27T12:02:23.697Z,4.28
2018-07-27T12:04:52.318Z,4.17
2018-07-27T12:07:20.832Z,4.12
2018-07-27T12:09:49.381Z,4.97
2018-07-27T12:12:17.956Z,4.90
2018-07-27T12:14:46.562Z,4.45
2018-07-27T12:17:15.338Z,4.60
2018-07-27T12:19:43.821Z,4.47
2018-07-27T12:22:12.441Z,4.47
2018-07-27T12:24:41.026Z,4.30
2018-07-27T12:27:09.572Z,4.12
2018-07-27T12:29:38.545Z,5.03
2018-07-27T12:32:07.218Z,4.03
2018-07-27T12:34:35.693Z,4.75
2018-07-27T12:37:04.500Z,4.17
2018-07-27T12:39:33.461Z,4.53
2018-07-27T12:42:01.963Z,4.55
2018-07-27T12:44:30.460Z,4.33
2018-07-27T12:46:59.040Z,4.45
2018-07-27T12:49:27.500Z,4.62
2018-07-27T12:51:56.247Z,4.92
2018-07-27T12:54:24.869Z,4.30
2018-07-27T12:56:53.870Z,4.00
2018-07-27T12:59:22.368Z,4.12
2018-07-27T13:01:50.821Z,4.05
2018-07-27T13:04:19.341Z,4.05
2018-07-27T13:06:47.849Z,4.33
2018-07-27T13:09:16.394Z,3.98
2018-07-27T13:11:44.922Z,4.37
2018-07-27T13:14:13.385Z,3.75
2018-07-27T13:16:41.930Z,4.35
2018-07-27T13:19:13.654Z,4.08
2018-07-27T13:21:42.217Z,2.92
2018-07-27T13:24:10.732Z,3.50
2018-07-27T13:26:39.234Z,3.30
2018-07-27T13:29:07.798Z,2.70
2018-07-27T13:31:58.245Z,2.85
2018-07-27T13:34:44.638Z,2.90
2018-07-27T13:37:13.547Z,3.70
2018-07-27T13:39:42.731Z,2.80
2018-07-27T13:42:12.518Z,4.10
2018-07-27T13:44:44.665Z,3.47
2018-07-27T13:47:13.584Z,2.80
2018-07-27T13:49:42.141Z,3.02
2018-07-27T13:52:10.674Z,3.52
2018-07-27T13:54:39.178Z,3.40
2018-07-27T13:57:08.676Z,3.02
2018-07-27T13:59:37.302Z,3.85
2018-07-27T14:02:05.993Z,3.65
2018-07-27T14:04:34.463Z,2.83
2018-07-27T14:07:03.958Z,2.62
2018-07-27T14:09:32.471Z,2.50
2018-07-27T14:12:01.054Z,2.50
2018-07-27T14:14:29.566Z,3.05
2018-07-27T14:16:58.112Z,3.00
2018-07-27T14:19:27.733Z,3.15
2018-07-27T14:21:56.300Z,2.60
2018-07-27T14:24:24.837Z,2.35
2018-07-27T14:26:53.424Z,2.60
2018-07-27T14:29:22.115Z,2.95
2018-07-27T14:31:50.741Z,2.95
2018-07-27T14:34:19.300Z,3.05
2018-07-27T14:36:47.805Z,3.05
2018-07-27T14:39:16.839Z,2.92
2018-07-27T14:41:45.506Z,2.65
2018-07-27T14:44:14.081Z,3.27
2018-07-27T14:46:42.565Z,2.55
2018-07-27T14:49:12.353Z,2.60
2018-07-27T14:51:41.443Z,2.80
2018-07-27T14:54:11.277Z,2.67
2018-07-27T14:56:40.380Z,2.22
2018-07-27T14:59:09.397Z,2.62
2018-07-27T15:01:38.324Z,2.58
2018-07-27T15:04:07.512Z,3.08
2018-07-27T15:06:36.032Z,2.70
2018-07-27T15:09:06.987Z,2.90
2018-07-27T15:11:35.506Z,2.80
2018-07-27T15:14:04.045Z,2.33
2018-07-27T15:16:32.561Z,2.33
2018-07-27T15:19:01.081Z,2.50
2018-07-27T15:21:29.585Z,2.40
2018-07-27T15:23:58.029Z,2.25
2018-07-27T15:26:26.773Z,2.37
2018-07-27T15:28:55.242Z,2.40
2018-07-27T15:31:23.800Z,2.08
2018-07-27T15:33:52.305Z,2.80
2018-07-27T15:36:20.796Z,2.55
2018-07-27T15:38:49.320Z,2.17
2018-07-27T15:41:17.808Z,2.33
2018-07-27T15:43:46.352Z,2.90
2018-07-27T15:46:14.877Z,2.47
2018-07-27T15:48:43.387Z,2.67
2018-07-27T15:51:12.000Z,2.55
2018-07-27T15:53:40.508Z,2.00
2018-07-27T15:56:09.013Z,2.35
2018-07-27T15:58:37.513Z,2.65
2018-07-27T16:01:06.161Z,2.15
2018-07-27T16:03:41.409Z,2.17
2018-07-27T16:06:09.976Z,2.60
2018-07-27T16:08:38.430Z,2.30
2018-07-27T16:11:07.097Z,2.80
2018-07-27T16:13:35.637Z,2.40
2018-07-27T16:16:04.185Z,2.22
2018-07-27T16:18:32.686Z,2.12
2018-07-27T16:21:01.248Z,2.37
2018-07-27T16:23:29.737Z,2.10
2018-07-27T16:25:58.240Z,2.35
2018-07-27T16:28:26.732Z,2.30
2018-07-27T16:30:55.192Z,2.65
2018-07-27T16:33:23.772Z,2.87
2018-07-27T16:35:52.285Z,2.70
2018-07-27T16:38:20.821Z,2.62
2018-07-27T16:40:49.740Z,2.70
2018-07-27T16:43:19.147Z,2.60
2018-07-27T16:45:47.801Z,2.52
2018-07-27T16:48:16.357Z,2.10
2018-07-27T16:50:44.918Z,2.87
2018-07-27T16:53:13.602Z,3.25
2018-07-27T16:55:42.056Z,2.90
2018-07-27T16:58:10.566Z,2.70
2018-07-27T17:00:39.072Z,3.40
2018-07-27T17:03:07.573Z,2.72
2018-07-27T17:05:36.146Z,2.83
2018-07-27T17:08:04.927Z,2.92
2018-07-27T17:10:33.424Z,2.40
2018-07-27T17:13:01.928Z,3.17
2018-07-27T17:15:30.483Z,2.80
2018-07-27T17:17:58.928Z,2.83
2018-07-27T17:20:27.392Z,2.98
2018-07-27T17:22:56.049Z,2.80
2018-07-27T17:25:24.615Z,3.05
2018-07-27T17:27:53.208Z,2.52
2018-07-27T17:30:21.716Z,2.60
2018-07-27T17:32:50.303Z,2.77
2018-07-27T17:35:18.774Z,3.25
2018-07-27T17:37:47.979Z,2.92
2018-07-27T17:40:16.610Z,2.98
2018-07-27T17:42:45.139Z,2.52
2018-07-27T17:45:13.650Z,2.90
2018-07-27T17:47:42.253Z,2.72
2018-07-27T17:50:10.748Z,2.65
2018-07-27T17:52:39.250Z,2.75
2018-07-27T17:55:07.793Z,2.90
2018-07-27T17:57:36.388Z,3.33
2018-07-27T18:00:05.788Z,5.58
2018-07-27T18:02:34.327Z,7.90
2018-07-27T18:05:02.834Z,6.62
2018-07-27T18:07:32.007Z,8.03
2018-07-27T18:10:01.103Z,4.05
2018-07-27T18:12:29.699Z,4.33
2018-07-27T18:14:58.206Z,5.33
2018-07-27T18:17:26.817Z,11.55
2018-07-27T18:19:55.333Z,13.03
2018-07-27T18:22:23.842Z,12.40
2018-07-27T18:24:52.727Z,13.28
2018-07-27T18:27:21.200Z,10.23
2018-07-27T18:29:49.884Z,7.50
2018-07-27T18:32:18.403Z,6.60
2018-07-27T18:34:46.970Z,3.35
2018-07-27T18:37:15.497Z,3.95
2018-07-27T18:39:44.060Z,4.67
2018-07-27T18:42:12.521Z,4.70
2018-07-27T18:44:41.054Z,4.03
2018-07-27T18:47:09.537Z,3.30
2018-07-27T18:49:38.557Z,3.20
2018-07-27T18:52:07.073Z,3.33
2018-07-27T18:54:35.604Z,3.02
2018-07-27T18:57:04.090Z,3.15
2018-07-27T18:59:33.160Z,3.22
2018-07-27T19:02:01.685Z,3.10
2018-07-27T19:04:30.177Z,3.40
2018-07-27T19:06:58.673Z,2.98
2018-07-27T19:09:27.207Z,2.90
2018-07-27T19:11:55.763Z,3.20
2018-07-27T19:14:24.242Z,2.87
2018-07-27T19:16:52.865Z,3.27
2018-07-27T19:19:21.383Z,3.25
2018-07-27T19:21:49.901Z,3.30
2018-07-27T19:24:18.497Z,3.47
2018-07-27T19:26:46.974Z,4.05
2018-07-27T19:29:16.044Z,3.40
2018-07-27T19:31:45.409Z,3.12
2018-07-27T19:34:14.245Z,3.52
2018-07-27T19:36:42.724Z,3.70
2018-07-27T19:39:12.384Z,5.00
2018-07-27T19:41:41.453Z,3.67
2018-07-27T19:44:09.961Z,3.75
2018-07-27T19:46:38.577Z,3.52
2018-07-27T19:49:07.139Z,3.53
2018-07-27T19:51:35.746Z,4.50
2018-07-27T19:54:04.231Z,3.80
2018-07-27T19:56:33.124Z,3.70
2018-07-27T19:59:01.611Z,5.40
2018-07-27T20:01:30.082Z,4.70
2018-07-27T20:03:58.597Z,4.00
2018-07-27T20:06:27.266Z,4.77
2018-07-27T20:08:56.076Z,4.00
2018-07-27T20:11:24.677Z,5.03
2018-07-27T20:13:53.217Z,4.33
2018-07-27T20:16:22.344Z,4.13
2018-07-27T20:18:50.872Z,4.60
2018-07-27T20:21:19.417Z,5.00
2018-07-27T20:23:47.922Z,4.67
2018-07-27T20:26:16.446Z,5.27
2018-07-27T20:28:44.944Z,5.30
2018-07-27T20:31:13.425Z,5.50
2018-07-27T20:33:41.941Z,5.67
2018-07-27T20:36:10.484Z,6.20
2018-07-27T20:38:39.027Z,6.53
2018-07-27T20:41:08.201Z,7.07
2018-07-27T20:43:36.665Z,21.50
2018-07-27T20:46:05.149Z,6.70
2018-07-27T20:48:33.700Z,6.30
2018-07-27T20:51:02.170Z,6.80
2018-07-27T20:53:30.662Z,6.93
2018-07-27T20:55:59.182Z,6.93
2018-07-27T20:58:27.722Z,6.60
2018-07-27T21:00:56.244Z,7.23
2018-07-27T21:03:24.740Z,6.90
2018-07-27T21:05:53.252Z,7.00
2018-07-27T21:08:21.773Z,7.57
2018-07-27T21:10:50.224Z,6.67
2018-07-27T21:13:18.722Z,7.33
2018-07-27T21:15:47.314Z,7.10
2018-07-27T21:18:15.847Z,6.93
2018-07-27T21:20:44.345Z,6.70
2018-07-27T21:23:12.846Z,7.50
2018-07-27T21:25:41.353Z,7.00
2018-07-27T21:28:09.864Z,7.67
2018-07-27T21:30:38.437Z,7.63
2018-07-27T21:33:06.933Z,6.80
2018-07-27T21:35:35.418Z,8.03
2018-07-27T21:38:03.981Z,7.10
2018-07-27T21:40:32.525Z,7.13
2018-07-27T21:43:01.614Z,7.97
2018-07-27T21:45:30.096Z,7.40
2018-07-27T21:47:58.577Z,8.90
2018-07-27T21:50:27.087Z,7.40
2018-07-27T21:52:55.580Z,7.73
2018-07-27T21:55:24.110Z,7.70
2018-07-27T21:57:52.654Z,7.60
2018-07-27T22:00:21.176Z,7.70
2018-07-27T22:02:49.739Z,7.57
2018-07-27T22:05:18.280Z,7.67
2018-07-27T22:07:49.916Z,12.43
2018-07-27T22:10:18.492Z,8.50
2018-07-27T22:12:47.112Z,7.77
2018-07-27T22:15:19.830Z,7.40
2018-07-27T22:17:48.930Z,8.30
2018-07-27T22:20:17.425Z,7.60
2018-07-27T22:22:45.915Z,8.60
2018-07-27T22:25:14.442Z,6.90
2018-07-27T22:27:43.102Z,8.53
2018-07-27T22:30:12.442Z,8.00
2018-07-27T22:32:40.857Z,7.80
2018-07-27T22:35:09.377Z,7.77
2018-07-27T22:37:39.469Z,7.17
2018-07-27T22:40:09.326Z,8.30
2018-07-27T22:42:37.896Z,7.57
2018-07-27T22:45:07.437Z,7.63
2018-07-27T22:47:35.940Z,7.97
2018-07-27T22:50:04.845Z,8.80
2018-07-27T22:52:38.666Z,8.10
2018-07-27T22:55:09.064Z,8.10
2018-07-27T22:57:37.614Z,8.70
2018-07-27T23:00:07.809Z,8.33
2018-07-27T23:02:36.348Z,8.73
2018-07-27T23:05:05.309Z,8.10
2018-07-27T23:07:33.856Z,8.37
2018-07-27T23:10:02.438Z,8.53
2018-07-27T23:12:30.978Z,8.40
2018-07-27T23:14:59.582Z,8.73
2018-07-27T23:17:28.155Z,8.60
2018-07-27T23:19:56.744Z,8.00
2018-07-27T23:22:25.601Z,8.87
2018-07-27T23:24:54.187Z,8.43
2018-07-27T23:27:22.667Z,9.63
2018-07-27T23:29:51.217Z,8.27
2018-07-27T23:32:19.748Z,8.63
2018-07-27T23:34:48.228Z,9.10
2018-07-27T23:37:16.772Z,9.10
2018-07-27T23:39:45.261Z,8.83
2018-07-27T23:42:13.809Z,9.70
2018-07-27T23:44:42.301Z,9.07
2018-07-27T23:47:10.794Z,9.40
2018-07-27T23:49:39.302Z,8.90
2018-07-27T23:52:07.824Z,9.00
2018-07-27T23:54:36.308Z,8.27
2018-07-27T23:57:04.893Z,9.07
2018-07-27T23:59:33.360Z,9.20
